sensor_id;sensor_type;location;lat;lon;timestamp;P1;durP1;ratioP1;P2;durP2;ratioP2
13291;SDS011;6714;53.056;8.690;2023-07-02T00:02:15;1.60;;;1.50;;
13291;SDS011;6714;53.056;8.690;2023-07-02T00:04:59;1.87;;;1.67;;
13291;SDS011;6714;53.056;8.690;2023-07-02T00:07:41;2.00;;;1.40;;
13291;SDS011;6714;53.056;8.690;2023-07-02T00:10:25;3.37;;;2.00;;
13291;SDS011;6714;53.056;8.690;2023-07-02T00:13:07;1.90;;;1.80;;
13291;SDS011;6714;53.056;8.690;2023-07-02T00:15:49;3.10;;;1.63;;
13291;SDS011;6714;53.056;8.690;2023-07-02T00:18:31;3.03;;;2.00;;
13291;SDS011;6714;53.056;8.690;2023-07-02T00:21:14;1.57;;;1.43;;
13291;SDS011;6714;53.056;8.690;2023-07-02T00:23:56;3.10;;;1.67;;
13291;SDS011;6714;53.056;8.690;2023-07-02T00:26:39;3.43;;;1.90;;
13291;SDS011;6714;53.056;8.690;2023-07-02T00:29:22;2.73;;;1.73;;
13291;SDS011;6714;53.056;8.690;2023-07-02T00:32:04;1.70;;;1.60;;
13291;SDS011;6714;53.056;8.690;2023-07-02T00:34:47;3.17;;;1.97;;
13291;SDS011;6714;53.056;8.690;2023-07-02T00:37:29;1.23;;;1.23;;
13291;SDS011;6714;53.056;8.690;2023-07-02T00:40:11;4.00;;;1.90;;
13291;SDS011;6714;53.056;8.690;2023-07-02T00:42:55;3.80;;;2.07;;
13291;SDS011;6714;53.056;8.690;2023-07-02T00:45:37;2.40;;;1.80;;
13291;SDS011;6714;53.056;8.690;2023-07-02T00:48:20;2.17;;;2.00;;
13291;SDS011;6714;53.056;8.690;2023-07-02T00:51:02;3.77;;;1.93;;
13291;SDS011;6714;53.056;8.690;2023-07-02T00:53:44;2.77;;;2.07;;
13291;SDS011;6714;53.056;8.690;2023-07-02T00:56:27;2.10;;;1.83;;
13291;SDS011;6714;53.056;8.690;2023-07-02T00:59:10;1.90;;;1.57;;
13291;SDS011;6714;53.056;8.690;2023-07-02T01:01:53;3.17;;;2.10;;
13291;SDS011;6714;53.056;8.690;2023-07-02T01:04:36;2.43;;;1.90;;
13291;SDS011;6714;53.056;8.690;2023-07-02T01:07:19;2.07;;;1.60;;
13291;SDS011;6714;53.056;8.690;2023-07-02T01:10:02;3.93;;;1.87;;
13291;SDS011;6714;53.056;8.690;2023-07-02T01:12:44;2.13;;;2.00;;
13291;SDS011;6714;53.056;8.690;2023-07-02T01:15:28;2.33;;;2.13;;
13291;SDS011;6714;53.056;8.690;2023-07-02T01:18:11;3.10;;;2.20;;
13291;SDS011;6714;53.056;8.690;2023-07-02T01:20:56;3.30;;;2.23;;
13291;SDS011;6714;53.056;8.690;2023-07-02T01:23:41;2.63;;;1.90;;
13291;SDS011;6714;53.056;8.690;2023-07-02T01:26:24;1.87;;;1.77;;
13291;SDS011;6714;53.056;8.690;2023-07-02T01:29:13;1.83;;;1.73;;
13291;SDS011;6714;53.056;8.690;2023-07-02T01:31:55;2.80;;;2.30;;
13291;SDS011;6714;53.056;8.690;2023-07-02T01:34:37;5.60;;;2.87;;
13291;SDS011;6714;53.056;8.690;2023-07-02T01:37:21;2.33;;;2.13;;
13291;SDS011;6714;53.056;8.690;2023-07-02T01:40:03;3.13;;;2.50;;
13291;SDS011;6714;53.056;8.690;2023-07-02T01:42:46;2.00;;;1.70;;
13291;SDS011;6714;53.056;8.690;2023-07-02T01:45:28;3.17;;;2.37;;
13291;SDS011;6714;53.056;8.690;2023-07-02T01:48:10;4.37;;;2.43;;
13291;SDS011;6714;53.056;8.690;2023-07-02T01:50:53;2.87;;;2.20;;
13291;SDS011;6714;53.056;8.690;2023-07-02T01:53:36;2.57;;;2.37;;
13291;SDS011;6714;53.056;8.690;2023-07-02T01:56:18;2.83;;;2.37;;
13291;SDS011;6714;53.056;8.690;2023-07-02T01:59:00;2.80;;;2.60;;
13291;SDS011;6714;53.056;8.690;2023-07-02T02:01:43;4.00;;;2.77;;
13291;SDS011;6714;53.056;8.690;2023-07-02T02:04:25;2.93;;;2.63;;
13291;SDS011;6714;53.056;8.690;2023-07-02T02:07:07;4.73;;;2.70;;
13291;SDS011;6714;53.056;8.690;2023-07-02T02:09:50;2.13;;;2.03;;
13291;SDS011;6714;53.056;8.690;2023-07-02T02:12:33;2.97;;;2.60;;
13291;SDS011;6714;53.056;8.690;2023-07-02T02:15:15;4.07;;;2.77;;
13291;SDS011;6714;53.056;8.690;2023-07-02T02:17:57;4.53;;;2.90;;
13291;SDS011;6714;53.056;8.690;2023-07-02T02:20:39;1.90;;;1.80;;
13291;SDS011;6714;53.056;8.690;2023-07-02T02:23:21;4.70;;;2.77;;
13291;SDS011;6714;53.056;8.690;2023-07-02T02:26:05;4.00;;;3.00;;
13291;SDS011;6714;53.056;8.690;2023-07-02T02:28:47;4.60;;;3.00;;
13291;SDS011;6714;53.056;8.690;2023-07-02T02:31:29;4.03;;;2.80;;
13291;SDS011;6714;53.056;8.690;2023-07-02T02:34:11;6.97;;;3.43;;
13291;SDS011;6714;53.056;8.690;2023-07-02T02:36:54;3.00;;;2.67;;
13291;SDS011;6714;53.056;8.690;2023-07-02T02:39:36;3.07;;;2.37;;
13291;SDS011;6714;53.056;8.690;2023-07-02T02:42:20;4.57;;;3.00;;
13291;SDS011;6714;53.056;8.690;2023-07-02T02:45:02;5.77;;;3.47;;
13291;SDS011;6714;53.056;8.690;2023-07-02T02:47:45;6.17;;;3.53;;
13291;SDS011;6714;53.056;8.690;2023-07-02T02:50:27;2.50;;;2.23;;
13291;SDS011;6714;53.056;8.690;2023-07-02T02:53:09;4.70;;;3.77;;
13291;SDS011;6714;53.056;8.690;2023-07-02T02:55:52;4.33;;;3.40;;
13291;SDS011;6714;53.056;8.690;2023-07-02T02:58:36;4.83;;;3.20;;
13291;SDS011;6714;53.056;8.690;2023-07-02T03:01:18;6.43;;;3.60;;
13291;SDS011;6714;53.056;8.690;2023-07-02T03:04:00;5.67;;;3.37;;
13291;SDS011;6714;53.056;8.690;2023-07-02T03:06:42;5.97;;;3.70;;
13291;SDS011;6714;53.056;8.690;2023-07-02T03:09:26;3.87;;;3.43;;
13291;SDS011;6714;53.056;8.690;2023-07-02T03:12:08;4.47;;;2.90;;
13291;SDS011;6714;53.056;8.690;2023-07-02T03:14:52;3.83;;;2.80;;
13291;SDS011;6714;53.056;8.690;2023-07-02T03:17:34;6.40;;;3.50;;
13291;SDS011;6714;53.056;8.690;2023-07-02T03:20:16;7.30;;;4.20;;
13291;SDS011;6714;53.056;8.690;2023-07-02T03:22:59;5.77;;;3.60;;
13291;SDS011;6714;53.056;8.690;2023-07-02T03:25:41;4.50;;;3.60;;
13291;SDS011;6714;53.056;8.690;2023-07-02T03:28:23;3.23;;;2.93;;
13291;SDS011;6714;53.056;8.690;2023-07-02T03:31:07;3.50;;;3.20;;
13291;SDS011;6714;53.056;8.690;2023-07-02T03:33:49;7.50;;;3.73;;
13291;SDS011;6714;53.056;8.690;2023-07-02T03:36:31;6.67;;;3.90;;
13291;SDS011;6714;53.056;8.690;2023-07-02T03:39:14;5.47;;;4.00;;
13291;SDS011;6714;53.056;8.690;2023-07-02T03:41:57;6.17;;;4.07;;
13291;SDS011;6714;53.056;8.690;2023-07-02T03:44:39;5.17;;;3.50;;
13291;SDS011;6714;53.056;8.690;2023-07-02T03:47:23;4.97;;;4.00;;
13291;SDS011;6714;53.056;8.690;2023-07-02T03:50:05;5.87;;;4.13;;
13291;SDS011;6714;53.056;8.690;2023-07-02T03:52:48;8.63;;;4.30;;
13291;SDS011;6714;53.056;8.690;2023-07-02T03:55:30;6.70;;;4.17;;
13291;SDS011;6714;53.056;8.690;2023-07-02T03:58:12;7.00;;;3.83;;
13291;SDS011;6714;53.056;8.690;2023-07-02T04:00:54;2.63;;;2.30;;
13291;SDS011;6714;53.056;8.690;2023-07-02T04:03:38;5.90;;;3.80;;
13291;SDS011;6714;53.056;8.690;2023-07-02T04:06:20;6.23;;;3.90;;
13291;SDS011;6714;53.056;8.690;2023-07-02T04:09:03;11.23;;;4.10;;
13291;SDS011;6714;53.056;8.690;2023-07-02T04:11:45;7.13;;;4.37;;
13291;SDS011;6714;53.056;8.690;2023-07-02T04:14:27;5.97;;;3.70;;
13291;SDS011;6714;53.056;8.690;2023-07-02T04:17:09;7.53;;;4.50;;
13291;SDS011;6714;53.056;8.690;2023-07-02T04:19:54;7.53;;;4.50;;
13291;SDS011;6714;53.056;8.690;2023-07-02T04:22:36;6.07;;;4.00;;
13291;SDS011;6714;53.056;8.690;2023-07-02T04:25:18;7.63;;;4.43;;
13291;SDS011;6714;53.056;8.690;2023-07-02T04:28:01;6.10;;;3.80;;
13291;SDS011;6714;53.056;8.690;2023-07-02T04:30:43;8.20;;;4.23;;
13291;SDS011;6714;53.056;8.690;2023-07-02T04:33:26;7.07;;;4.63;;
13291;SDS011;6714;53.056;8.690;2023-07-02T04:36:17;8.43;;;4.70;;
13291;SDS011;6714;53.056;8.690;2023-07-02T04:38:59;12.43;;;4.27;;
13291;SDS011;6714;53.056;8.690;2023-07-02T04:41:41;7.00;;;4.50;;
13291;SDS011;6714;53.056;8.690;2023-07-02T04:44:23;8.10;;;4.27;;
13291;SDS011;6714;53.056;8.690;2023-07-02T04:47:09;6.43;;;3.77;;
13291;SDS011;6714;53.056;8.690;2023-07-02T04:49:51;8.63;;;4.70;;
13291;SDS011;6714;53.056;8.690;2023-07-02T04:52:34;5.77;;;3.63;;
13291;SDS011;6714;53.056;8.690;2023-07-02T04:55:17;7.93;;;4.93;;
13291;SDS011;6714;53.056;8.690;2023-07-02T04:57:59;13.60;;;6.00;;
13291;SDS011;6714;53.056;8.690;2023-07-02T05:00:41;9.47;;;4.93;;
13291;SDS011;6714;53.056;8.690;2023-07-02T05:03:23;9.60;;;4.60;;
13291;SDS011;6714;53.056;8.690;2023-07-02T05:06:06;11.67;;;5.77;;
13291;SDS011;6714;53.056;8.690;2023-07-02T05:08:50;10.73;;;5.47;;
13291;SDS011;6714;53.056;8.690;2023-07-02T05:11:33;9.63;;;5.73;;
13291;SDS011;6714;53.056;8.690;2023-07-02T05:14:15;10.43;;;5.07;;
13291;SDS011;6714;53.056;8.690;2023-07-02T05:16:57;9.47;;;5.00;;
13291;SDS011;6714;53.056;8.690;2023-07-02T05:19:39;11.03;;;5.70;;
13291;SDS011;6714;53.056;8.690;2023-07-02T05:22:22;16.80;;;6.47;;
13291;SDS011;6714;53.056;8.690;2023-07-02T05:25:06;14.13;;;6.40;;
13291;SDS011;6714;53.056;8.690;2023-07-02T05:27:48;6.03;;;3.93;;
13291;SDS011;6714;53.056;8.690;2023-07-02T05:30:30;9.43;;;5.37;;
13291;SDS011;6714;53.056;8.690;2023-07-02T05:33:13;9.63;;;4.63;;
13291;SDS011;6714;53.056;8.690;2023-07-02T05:35:55;6.53;;;4.43;;
13291;SDS011;6714;53.056;8.690;2023-07-02T05:38:38;11.67;;;6.40;;
13291;SDS011;6714;53.056;8.690;2023-07-02T05:41:22;7.63;;;4.87;;
13291;SDS011;6714;53.056;8.690;2023-07-02T05:44:05;12.93;;;6.40;;
13291;SDS011;6714;53.056;8.690;2023-07-02T05:46:47;11.70;;;5.73;;
13291;SDS011;6714;53.056;8.690;2023-07-02T05:49:29;9.80;;;5.60;;
13291;SDS011;6714;53.056;8.690;2023-07-02T05:52:11;15.13;;;6.90;;
13291;SDS011;6714;53.056;8.690;2023-07-02T05:54:53;8.27;;;4.43;;
13291;SDS011;6714;53.056;8.690;2023-07-02T05:57:37;11.17;;;6.27;;
13291;SDS011;6714;53.056;8.690;2023-07-02T06:00:19;10.30;;;5.60;;
13291;SDS011;6714;53.056;8.690;2023-07-02T06:03:02;11.17;;;6.00;;
13291;SDS011;6714;53.056;8.690;2023-07-02T06:05:44;13.37;;;6.20;;
13291;SDS011;6714;53.056;8.690;2023-07-02T06:08:26;9.83;;;5.13;;
13291;SDS011;6714;53.056;8.690;2023-07-02T06:11:09;10.13;;;5.67;;
13291;SDS011;6714;53.056;8.690;2023-07-02T06:13:52;11.40;;;6.03;;
13291;SDS011;6714;53.056;8.690;2023-07-02T06:16:35;12.97;;;7.10;;
13291;SDS011;6714;53.056;8.690;2023-07-02T06:19:17;12.20;;;6.77;;
13291;SDS011;6714;53.056;8.690;2023-07-02T06:21:59;14.43;;;7.10;;
13291;SDS011;6714;53.056;8.690;2023-07-02T06:24:41;13.93;;;6.77;;
13291;SDS011;6714;53.056;8.690;2023-07-02T06:27:23;13.33;;;6.30;;
13291;SDS011;6714;53.056;8.690;2023-07-02T06:30:07;12.30;;;6.60;;
13291;SDS011;6714;53.056;8.690;2023-07-02T06:32:50;14.93;;;6.77;;
13291;SDS011;6714;53.056;8.690;2023-07-02T06:35:32;11.97;;;5.73;;
13291;SDS011;6714;53.056;8.690;2023-07-02T06:38:14;17.30;;;8.00;;
13291;SDS011;6714;53.056;8.690;2023-07-02T06:40:56;13.93;;;6.57;;
13291;SDS011;6714;53.056;8.690;2023-07-02T06:43:38;10.60;;;6.03;;
13291;SDS011;6714;53.056;8.690;2023-07-02T06:46:22;16.90;;;7.53;;
13291;SDS011;6714;53.056;8.690;2023-07-02T06:49:04;14.87;;;6.87;;
13291;SDS011;6714;53.056;8.690;2023-07-02T06:51:47;16.37;;;7.83;;
13291;SDS011;6714;53.056;8.690;2023-07-02T06:54:30;17.43;;;8.27;;
13291;SDS011;6714;53.056;8.690;2023-07-02T06:57:12;15.47;;;7.33;;
13291;SDS011;6714;53.056;8.690;2023-07-02T06:59:57;12.00;;;6.90;;
13291;SDS011;6714;53.056;8.690;2023-07-02T07:02:41;13.00;;;7.00;;
13291;SDS011;6714;53.056;8.690;2023-07-02T07:05:23;13.67;;;7.13;;
13291;SDS011;6714;53.056;8.690;2023-07-02T07:08:06;15.47;;;7.47;;
13291;SDS011;6714;53.056;8.690;2023-07-02T07:10:49;14.00;;;7.00;;
13291;SDS011;6714;53.056;8.690;2023-07-02T07:13:32;13.30;;;6.87;;
13291;SDS011;6714;53.056;8.690;2023-07-02T07:16:14;13.10;;;6.70;;
13291;SDS011;6714;53.056;8.690;2023-07-02T07:18:58;13.50;;;6.93;;
13291;SDS011;6714;53.056;8.690;2023-07-02T07:21:41;13.97;;;7.10;;
13291;SDS011;6714;53.056;8.690;2023-07-02T07:24:24;12.70;;;6.17;;
13291;SDS011;6714;53.056;8.690;2023-07-02T07:27:07;12.80;;;6.57;;
13291;SDS011;6714;53.056;8.690;2023-07-02T07:29:50;14.67;;;7.17;;
13291;SDS011;6714;53.056;8.690;2023-07-02T07:32:32;15.80;;;7.20;;
13291;SDS011;6714;53.056;8.690;2023-07-02T07:35:16;9.07;;;5.80;;
13291;SDS011;6714;53.056;8.690;2023-07-02T07:37:58;12.00;;;6.60;;
13291;SDS011;6714;53.056;8.690;2023-07-02T07:40:41;12.50;;;6.40;;
13291;SDS011;6714;53.056;8.690;2023-07-02T07:43:23;10.23;;;6.50;;
13291;SDS011;6714;53.056;8.690;2023-07-02T07:46:05;10.80;;;6.03;;
13291;SDS011;6714;53.056;8.690;2023-07-02T07:48:47;11.00;;;6.50;;
13291;SDS011;6714;53.056;8.690;2023-07-02T07:51:31;14.23;;;6.70;;
13291;SDS011;6714;53.056;8.690;2023-07-02T07:54:15;12.47;;;6.40;;
13291;SDS011;6714;53.056;8.690;2023-07-02T07:56:58;9.90;;;6.13;;
13291;SDS011;6714;53.056;8.690;2023-07-02T07:59:40;10.87;;;6.27;;
13291;SDS011;6714;53.056;8.690;2023-07-02T08:02:22;13.60;;;6.07;;
13291;SDS011;6714;53.056;8.690;2023-07-02T08:05:04;11.67;;;6.30;;
13291;SDS011;6714;53.056;8.690;2023-07-02T08:07:48;10.73;;;6.40;;
13291;SDS011;6714;53.056;8.690;2023-07-02T08:10:30;9.23;;;5.80;;
13291;SDS011;6714;53.056;8.690;2023-07-02T08:13:12;8.77;;;5.77;;
13291;SDS011;6714;53.056;8.690;2023-07-02T08:15:55;9.03;;;5.80;;
13291;SDS011;6714;53.056;8.690;2023-07-02T08:18:37;11.70;;;6.20;;
13291;SDS011;6714;53.056;8.690;2023-07-02T08:21:19;9.93;;;5.50;;
13291;SDS011;6714;53.056;8.690;2023-07-02T08:24:03;10.80;;;5.83;;
13291;SDS011;6714;53.056;8.690;2023-07-02T08:26:46;11.13;;;5.80;;
13291;SDS011;6714;53.056;8.690;2023-07-02T08:29:29;9.63;;;5.53;;
13291;SDS011;6714;53.056;8.690;2023-07-02T08:32:12;9.87;;;5.47;;
13291;SDS011;6714;53.056;8.690;2023-07-02T08:34:54;9.43;;;5.60;;
13291;SDS011;6714;53.056;8.690;2023-07-02T08:37:36;8.97;;;5.40;;
13291;SDS011;6714;53.056;8.690;2023-07-02T08:40:19;9.07;;;5.17;;
13291;SDS011;6714;53.056;8.690;2023-07-02T08:43:02;10.00;;;5.83;;
13291;SDS011;6714;53.056;8.690;2023-07-02T08:45:44;8.13;;;5.20;;
13291;SDS011;6714;53.056;8.690;2023-07-02T08:48:26;8.20;;;5.80;;
13291;SDS011;6714;53.056;8.690;2023-07-02T08:51:09;11.47;;;5.40;;
13291;SDS011;6714;53.056;8.690;2023-07-02T08:53:51;8.67;;;5.23;;
13291;SDS011;6714;53.056;8.690;2023-07-02T08:56:35;7.23;;;5.00;;
13291;SDS011;6714;53.056;8.690;2023-07-02T08:59:17;8.20;;;4.90;;
13291;SDS011;6714;53.056;8.690;2023-07-02T09:01:59;9.43;;;5.37;;
13291;SDS011;6714;53.056;8.690;2023-07-02T09:04:42;9.80;;;5.77;;
13291;SDS011;6714;53.056;8.690;2023-07-02T09:07:24;10.07;;;5.57;;
13291;SDS011;6714;53.056;8.690;2023-07-02T09:10:06;8.37;;;4.90;;
13291;SDS011;6714;53.056;8.690;2023-07-02T09:12:50;9.43;;;5.50;;
13291;SDS011;6714;53.056;8.690;2023-07-02T09:15:36;9.30;;;5.50;;
13291;SDS011;6714;53.056;8.690;2023-07-02T09:18:18;8.27;;;4.80;;
13291;SDS011;6714;53.056;8.690;2023-07-02T09:21:00;8.13;;;5.50;;
13291;SDS011;6714;53.056;8.690;2023-07-02T09:23:43;8.87;;;5.50;;
13291;SDS011;6714;53.056;8.690;2023-07-02T09:26:25;8.30;;;5.37;;
13291;SDS011;6714;53.056;8.690;2023-07-02T09:29:09;7.57;;;5.27;;
13291;SDS011;6714;53.056;8.690;2023-07-02T09:31:52;7.77;;;4.90;;
13291;SDS011;6714;53.056;8.690;2023-07-02T09:34:35;8.23;;;5.17;;
13291;SDS011;6714;53.056;8.690;2023-07-02T09:37:18;8.30;;;4.90;;
13291;SDS011;6714;53.056;8.690;2023-07-02T09:40:00;9.23;;;5.13;;
13291;SDS011;6714;53.056;8.690;2023-07-02T09:42:45;10.07;;;5.43;;
13291;SDS011;6714;53.056;8.690;2023-07-02T09:45:34;11.87;;;5.60;;
13291;SDS011;6714;53.056;8.690;2023-07-02T09:48:16;7.20;;;4.90;;
13291;SDS011;6714;53.056;8.690;2023-07-02T09:50:59;8.00;;;5.33;;
13291;SDS011;6714;53.056;8.690;2023-07-02T09:53:41;6.20;;;4.90;;
13291;SDS011;6714;53.056;8.690;2023-07-02T09:56:23;8.50;;;5.03;;
13291;SDS011;6714;53.056;8.690;2023-07-02T09:59:05;8.48;;;5.20;;
13291;SDS011;6714;53.056;8.690;2023-07-02T10:01:49;6.13;;;4.93;;
13291;SDS011;6714;53.056;8.690;2023-07-02T10:04:39;6.65;;;4.97;;
13291;SDS011;6714;53.056;8.690;2023-07-02T10:07:28;6.93;;;4.60;;
13291;SDS011;6714;53.056;8.690;2023-07-02T10:10:10;7.55;;;4.68;;
13291;SDS011;6714;53.056;8.690;2023-07-02T10:12:53;6.25;;;4.50;;
13291;SDS011;6714;53.056;8.690;2023-07-02T10:15:35;7.20;;;4.03;;
13291;SDS011;6714;53.056;8.690;2023-07-02T10:18:25;6.57;;;4.28;;
13291;SDS011;6714;53.056;8.690;2023-07-02T10:21:14;5.80;;;4.63;;
13291;SDS011;6714;53.056;8.690;2023-07-02T10:23:56;6.13;;;4.15;;
13291;SDS011;6714;53.056;8.690;2023-07-02T10:26:39;5.55;;;3.55;;
13291;SDS011;6714;53.056;8.690;2023-07-02T10:29:22;6.40;;;3.47;;
13291;SDS011;6714;53.056;8.690;2023-07-02T10:32:04;4.47;;;3.10;;
13291;SDS011;6714;53.056;8.690;2023-07-02T10:34:48;5.45;;;3.33;;
13291;SDS011;6714;53.056;8.690;2023-07-02T10:37:36;3.95;;;3.00;;
13291;SDS011;6714;53.056;8.690;2023-07-02T10:40:19;4.22;;;3.05;;
13291;SDS011;6714;53.056;8.690;2023-07-02T10:43:01;6.00;;;2.75;;
13291;SDS011;6714;53.056;8.690;2023-07-02T10:45:43;5.25;;;3.45;;
13291;SDS011;6714;53.056;8.690;2023-07-02T10:48:26;4.85;;;2.78;;
13291;SDS011;6714;53.056;8.690;2023-07-02T10:51:12;4.18;;;3.05;;
13291;SDS011;6714;53.056;8.690;2023-07-02T10:53:58;5.63;;;3.50;;
13291;SDS011;6714;53.056;8.690;2023-07-02T10:56:40;6.18;;;3.28;;
13291;SDS011;6714;53.056;8.690;2023-07-02T10:59:24;5.70;;;3.03;;
13291;SDS011;6714;53.056;8.690;2023-07-02T11:02:06;4.78;;;2.97;;
13291;SDS011;6714;53.056;8.690;2023-07-02T11:04:50;5.53;;;3.13;;
13291;SDS011;6714;53.056;8.690;2023-07-02T11:07:34;4.80;;;2.95;;
13291;SDS011;6714;53.056;8.690;2023-07-02T11:10:17;4.65;;;3.13;;
13291;SDS011;6714;53.056;8.690;2023-07-02T11:13:09;5.53;;;3.20;;
13291;SDS011;6714;53.056;8.690;2023-07-02T11:15:51;5.13;;;2.88;;
13291;SDS011;6714;53.056;8.690;2023-07-02T11:18:34;3.85;;;2.90;;
13291;SDS011;6714;53.056;8.690;2023-07-02T11:21:16;5.15;;;3.00;;
13291;SDS011;6714;53.056;8.690;2023-07-02T11:24:06;3.63;;;2.90;;
13291;SDS011;6714;53.056;8.690;2023-07-02T11:26:49;3.75;;;2.85;;
13291;SDS011;6714;53.056;8.690;2023-07-02T11:29:31;3.63;;;2.85;;
13291;SDS011;6714;53.056;8.690;2023-07-02T11:32:14;3.95;;;2.83;;
13291;SDS011;6714;53.056;8.690;2023-07-02T11:34:56;4.00;;;2.80;;
13291;SDS011;6714;53.056;8.690;2023-07-02T11:37:38;3.80;;;2.95;;
13291;SDS011;6714;53.056;8.690;2023-07-02T11:40:22;4.18;;;2.60;;
13291;SDS011;6714;53.056;8.690;2023-07-02T11:43:05;3.80;;;2.80;;
13291;SDS011;6714;53.056;8.690;2023-07-02T11:45:47;4.03;;;2.80;;
13291;SDS011;6714;53.056;8.690;2023-07-02T11:48:30;4.13;;;2.88;;
13291;SDS011;6714;53.056;8.690;2023-07-02T11:51:12;3.42;;;2.50;;
13291;SDS011;6714;53.056;8.690;2023-07-02T11:53:54;4.90;;;2.65;;
13291;SDS011;6714;53.056;8.690;2023-07-02T11:56:38;2.88;;;2.50;;
13291;SDS011;6714;53.056;8.690;2023-07-02T11:59:22;5.43;;;3.28;;
13291;SDS011;6714;53.056;8.690;2023-07-02T12:02:04;3.08;;;2.67;;
13291;SDS011;6714;53.056;8.690;2023-07-02T12:04:46;5.05;;;2.78;;
13291;SDS011;6714;53.056;8.690;2023-07-02T12:07:28;3.20;;;2.30;;
13291;SDS011;6714;53.056;8.690;2023-07-02T12:10:11;2.70;;;2.50;;
13291;SDS011;6714;53.056;8.690;2023-07-02T12:12:54;4.68;;;2.92;;
13291;SDS011;6714;53.056;8.690;2023-07-02T12:15:37;3.20;;;2.55;;
13291;SDS011;6714;53.056;8.690;2023-07-02T12:18:19;4.32;;;2.40;;
13291;SDS011;6714;53.056;8.690;2023-07-02T12:21:01;4.10;;;2.80;;
13291;SDS011;6714;53.056;8.690;2023-07-02T12:23:43;5.32;;;3.08;;
13291;SDS011;6714;53.056;8.690;2023-07-02T12:26:26;3.58;;;2.83;;
13291;SDS011;6714;53.056;8.690;2023-07-02T12:29:11;3.10;;;2.80;;
13291;SDS011;6714;53.056;8.690;2023-07-02T12:31:53;3.10;;;2.80;;
13291;SDS011;6714;53.056;8.690;2023-07-02T12:34:35;3.00;;;2.50;;
13291;SDS011;6714;53.056;8.690;2023-07-02T12:37:18;2.80;;;2.58;;
13291;SDS011;6714;53.056;8.690;2023-07-02T12:40:03;3.20;;;2.50;;
13291;SDS011;6714;53.056;8.690;2023-07-02T12:42:45;3.88;;;3.00;;
13291;SDS011;6714;53.056;8.690;2023-07-02T12:45:29;3.88;;;2.90;;
13291;SDS011;6714;53.056;8.690;2023-07-02T12:48:11;4.10;;;2.80;;
13291;SDS011;6714;53.056;8.690;2023-07-02T12:50:54;4.22;;;2.75;;
13291;SDS011;6714;53.056;8.690;2023-07-02T12:53:36;4.75;;;3.28;;
13291;SDS011;6714;53.056;8.690;2023-07-02T12:56:18;3.03;;;2.70;;
13291;SDS011;6714;53.056;8.690;2023-07-02T12:59:01;4.13;;;3.05;;
13291;SDS011;6714;53.056;8.690;2023-07-02T13:01:45;5.05;;;3.10;;
13291;SDS011;6714;53.056;8.690;2023-07-02T13:04:28;3.30;;;3.00;;
13291;SDS011;6714;53.056;8.690;2023-07-02T13:07:10;4.43;;;3.17;;
13291;SDS011;6714;53.056;8.690;2023-07-02T13:09:52;6.20;;;3.40;;
13291;SDS011;6714;53.056;8.690;2023-07-02T13:12:34;4.88;;;3.00;;
13291;SDS011;6714;53.056;8.690;2023-07-02T13:15:16;5.78;;;3.20;;
13291;SDS011;6714;53.056;8.690;2023-07-02T13:18:00;5.03;;;3.10;;
13291;SDS011;6714;53.056;8.690;2023-07-02T13:20:42;3.75;;;3.10;;
13291;SDS011;6714;53.056;8.690;2023-07-02T13:23:24;3.55;;;2.83;;
13291;SDS011;6714;53.056;8.690;2023-07-02T13:26:07;4.25;;;2.90;;
13291;SDS011;6714;53.056;8.690;2023-07-02T13:28:49;3.53;;;2.85;;
13291;SDS011;6714;53.056;8.690;2023-07-02T13:31:31;3.38;;;2.83;;
13291;SDS011;6714;53.056;8.690;2023-07-02T13:34:14;3.33;;;3.00;;
13291;SDS011;6714;53.056;8.690;2023-07-02T13:36:57;3.70;;;2.58;;
13291;SDS011;6714;53.056;8.690;2023-07-02T13:39:39;4.82;;;3.10;;
13291;SDS011;6714;53.056;8.690;2023-07-02T13:42:21;3.20;;;2.90;;
13291;SDS011;6714;53.056;8.690;2023-07-02T13:45:04;3.30;;;2.75;;
13291;SDS011;6714;53.056;8.690;2023-07-02T13:47:46;3.78;;;2.88;;
13291;SDS011;6714;53.056;8.690;2023-07-02T13:50:30;6.15;;;2.90;;
13291;SDS011;6714;53.056;8.690;2023-07-02T13:53:12;3.55;;;2.88;;
13291;SDS011;6714;53.056;8.690;2023-07-02T13:55:54;3.33;;;2.80;;
13291;SDS011;6714;53.056;8.690;2023-07-02T13:58:47;3.97;;;3.05;;
13291;SDS011;6714;53.056;8.690;2023-07-02T14:01:40;4.75;;;3.05;;
13291;SDS011;6714;53.056;8.690;2023-07-02T14:04:22;3.45;;;2.92;;
13291;SDS011;6714;53.056;8.690;2023-07-02T14:07:05;4.00;;;2.90;;
13291;SDS011;6714;53.056;8.690;2023-07-02T14:09:47;4.63;;;2.63;;
13291;SDS011;6714;53.056;8.690;2023-07-02T14:12:29;4.60;;;3.05;;
13291;SDS011;6714;53.056;8.690;2023-07-02T14:15:13;3.55;;;2.85;;
13291;SDS011;6714;53.056;8.690;2023-07-02T14:17:58;5.05;;;3.53;;
13291;SDS011;6714;53.056;8.690;2023-07-02T14:20:40;4.97;;;3.17;;
13291;SDS011;6714;53.056;8.690;2023-07-02T14:23:22;4.40;;;3.28;;
13291;SDS011;6714;53.056;8.690;2023-07-02T14:26:04;5.10;;;2.60;;
13291;SDS011;6714;53.056;8.690;2023-07-02T14:28:48;4.75;;;3.00;;
13291;SDS011;6714;53.056;8.690;2023-07-02T14:31:31;6.38;;;3.13;;
13291;SDS011;6714;53.056;8.690;2023-07-02T14:34:13;4.95;;;2.92;;
13291;SDS011;6714;53.056;8.690;2023-07-02T14:36:56;6.07;;;3.03;;
13291;SDS011;6714;53.056;8.690;2023-07-02T14:39:38;4.38;;;2.83;;
13291;SDS011;6714;53.056;8.690;2023-07-02T14:42:20;5.03;;;2.83;;
13291;SDS011;6714;53.056;8.690;2023-07-02T14:45:03;7.13;;;3.05;;
13291;SDS011;6714;53.056;8.690;2023-07-02T14:47:47;6.35;;;3.20;;
13291;SDS011;6714;53.056;8.690;2023-07-02T14:50:29;4.53;;;3.08;;
13291;SDS011;6714;53.056;8.690;2023-07-02T14:53:11;5.43;;;2.88;;
13291;SDS011;6714;53.056;8.690;2023-07-02T14:55:54;4.22;;;2.78;;
13291;SDS011;6714;53.056;8.690;2023-07-02T14:58:36;5.50;;;2.72;;
13291;SDS011;6714;53.056;8.690;2023-07-02T15:01:18;4.47;;;2.88;;
13291;SDS011;6714;53.056;8.690;2023-07-02T15:04:02;3.83;;;2.50;;
13291;SDS011;6714;53.056;8.690;2023-07-02T15:06:44;3.95;;;3.00;;
13291;SDS011;6714;53.056;8.690;2023-07-02T15:09:27;5.75;;;2.63;;
13291;SDS011;6714;53.056;8.690;2023-07-02T15:12:09;2.88;;;2.47;;
13291;SDS011;6714;53.056;8.690;2023-07-02T15:14:51;4.53;;;2.95;;
13291;SDS011;6714;53.056;8.690;2023-07-02T15:17:33;3.63;;;2.78;;
13291;SDS011;6714;53.056;8.690;2023-07-02T15:20:17;2.78;;;2.58;;
13291;SDS011;6714;53.056;8.690;2023-07-02T15:22:59;4.22;;;2.70;;
13291;SDS011;6714;53.056;8.690;2023-07-02T15:25:41;4.30;;;2.90;;
13291;SDS011;6714;53.056;8.690;2023-07-02T15:28:24;4.80;;;2.83;;
13291;SDS011;6714;53.056;8.690;2023-07-02T15:31:07;4.93;;;2.47;;
13291;SDS011;6714;53.056;8.690;2023-07-02T15:33:50;5.25;;;2.80;;
13291;SDS011;6714;53.056;8.690;2023-07-02T15:36:34;5.18;;;3.10;;
13291;SDS011;6714;53.056;8.690;2023-07-02T15:39:17;4.55;;;3.00;;
13291;SDS011;6714;53.056;8.690;2023-07-02T15:42:02;3.53;;;2.63;;
13291;SDS011;6714;53.056;8.690;2023-07-02T15:44:45;5.65;;;2.97;;
13291;SDS011;6714;53.056;8.690;2023-07-02T15:47:27;5.97;;;2.90;;
13291;SDS011;6714;53.056;8.690;2023-07-02T15:50:10;4.75;;;2.75;;
13291;SDS011;6714;53.056;8.690;2023-07-02T15:52:53;3.35;;;2.67;;
13291;SDS011;6714;53.056;8.690;2023-07-02T15:55:35;5.30;;;3.33;;
13291;SDS011;6714;53.056;8.690;2023-07-02T15:58:17;5.95;;;3.10;;
13291;SDS011;6714;53.056;8.690;2023-07-02T16:01:08;5.28;;;3.08;;
13291;SDS011;6714;53.056;8.690;2023-07-02T16:03:50;6.20;;;3.50;;
13291;SDS011;6714;53.056;8.690;2023-07-02T16:06:34;5.88;;;3.33;;
13291;SDS011;6714;53.056;8.690;2023-07-02T16:09:19;5.32;;;3.40;;
13291;SDS011;6714;53.056;8.690;2023-07-02T16:12:02;4.80;;;3.45;;
13291;SDS011;6714;53.056;8.690;2023-07-02T16:14:44;4.70;;;3.38;;
13291;SDS011;6714;53.056;8.690;2023-07-02T16:17:27;6.30;;;3.45;;
13291;SDS011;6714;53.056;8.690;2023-07-02T16:20:09;5.70;;;3.80;;
13291;SDS011;6714;53.056;8.690;2023-07-02T16:22:51;5.18;;;3.50;;
13291;SDS011;6714;53.056;8.690;2023-07-02T16:25:35;4.07;;;3.28;;
13291;SDS011;6714;53.056;8.690;2023-07-02T16:28:17;5.38;;;3.20;;
13291;SDS011;6714;53.056;8.690;2023-07-02T16:30:59;5.15;;;3.45;;
13291;SDS011;6714;53.056;8.690;2023-07-02T16:33:42;5.75;;;3.80;;